Trosky, Minnesota
Current Conditions -  °F | °C
As of 9:54 PM on Friday 28 Nov 2014 (Local Time) from KPQN Reporting Station
Haze Haze  
Wind Chill: 13°   Ceiling: Unl
Heat Index: 23°   Visibility: 5mi
Dew Point: 21°   Wind: 9mph
Humidity: 93%   Direction: 140°SE
Pressure: 29.58"   Gusts: NA
Location:  43.89°N, 96.26°W
Report Text: KPQN 290354Z AUTO 14008KT 5SM BR CLR M05/M06 A2958 RMK AO2
Loading
Personal Weather Stations






























Interactive Weather Map New forecast layout! Learn more

10-Day Weather Forecast

Advertisements
Track Severe Weather on mobile